Time;durP1;ratioP1;P1;durP2;ratioP2;P2;SDS_P1;SDS_P2;PMS_P1;PMS_P2;Temp;Humidity;BMP_temperature;BMP_pressure;BME280_temperature;BME280_humidity;BME280_pressure;Samples;Min_cycle;Max_cycle;Signal;HPM_P1;HPM_P2
2021/06/12 00:02:07;;;;;;;1.98;1.88;;;18.20;99.90;;;;;;4923708;29;20489;-80
2021/06/12 00:04:32;;;;;;;2.20;2.07;;;18.10;99.90;;;;;;4908705;29;20415;-80
2021/06/12 00:06:59;;;;;;;2.00;1.90;;;18.20;99.90;;;;;;4927063;28;20498;-80
2021/06/12 00:09:25;;;;;;;2.42;2.17;;;18.20;99.90;;;;;;4906575;29;20967;-81
2021/06/12 00:11:51;;;;;;;2.20;2.10;;;18.20;99.90;;;;;;4916210;29;20405;-80
2021/06/12 00:14:16;;;;;;;3.00;2.30;;;18.20;99.90;;;;;;4893462;29;20428;-80
2021/06/12 00:16:42;;;;;;;2.25;2.15;;;18.10;99.90;;;;;;4907409;29;20407;-80
2021/06/12 00:19:08;;;;;;;2.30;2.10;;;18.10;99.90;;;;;;4896821;29;20415;-80
2021/06/12 00:21:36;;;;;;;2.10;2.00;;;18.10;99.90;;;;;;4906632;29;20410;-81
2021/06/12 00:24:06;;;;;;;2.00;1.90;;;18.10;99.90;;;;;;4886827;29;21157;-80
2021/06/12 00:26:31;;;;;;;2.20;2.10;;;18.10;99.90;;;;;;4912435;29;20725;-80
2021/06/12 00:28:57;;;;;;;2.17;2.00;;;18.10;99.90;;;;;;4907011;29;20411;-81
2021/06/12 00:31:23;;;;;;;2.40;2.20;;;18.00;99.90;;;;;;4893909;29;20418;-80
2021/06/12 00:33:48;;;;;;;2.38;2.17;;;18.00;99.90;;;;;;4910666;29;20419;-80
2021/06/12 00:36:14;;;;;;;2.10;2.00;;;18.00;99.90;;;;;;4916160;29;20399;-81
2021/06/12 00:38:40;;;;;;;2.07;1.97;;;18.00;99.90;;;;;;4901909;29;20415;-80
2021/06/12 00:41:08;;;;;;;2.00;1.90;;;17.90;99.90;;;;;;4891395;29;20407;-80
2021/06/12 00:43:34;;;;;;;2.60;2.40;;;17.90;99.90;;;;;;4887439;29;20445;-84
2021/06/12 00:46:03;;;;;;;2.10;2.00;;;17.80;99.90;;;;;;4902470;29;20512;-81
2021/06/12 00:48:28;;;;;;;2.05;1.95;;;17.80;99.90;;;;;;4908832;29;20944;-80
2021/06/12 00:50:54;;;;;;;2.13;2.03;;;17.80;99.90;;;;;;4915348;29;20472;-80
2021/06/12 00:53:36;;;;;;;2.25;2.05;;;17.80;99.90;;;;;;4908923;29;20574;-81
2021/06/12 00:56:05;;;;;;;2.10;2.00;;;17.80;99.90;;;;;;4893344;29;20493;-80
2021/06/12 00:58:33;;;;;;;2.50;2.30;;;17.80;99.90;;;;;;4921553;29;20476;-80
2021/06/12 01:00:59;;;;;;;2.85;2.15;;;17.70;99.90;;;;;;4921489;29;20410;-79
2021/06/12 01:03:25;;;;;;;2.08;1.98;;;17.70;99.90;;;;;;4905553;29;20614;-83
2021/06/12 01:05:50;;;;;;;2.65;2.45;;;17.60;99.90;;;;;;4926281;29;20472;-80
2021/06/12 01:08:16;;;;;;;2.23;2.13;;;17.60;99.90;;;;;;4904709;29;20414;-80
2021/06/12 01:10:42;;;;;;;2.58;2.38;;;17.60;99.90;;;;;;4905662;29;20395;-80
2021/06/12 01:13:26;;;;;;;2.30;2.10;;;17.60;99.90;;;;;;4908142;29;20438;-80
2021/06/12 01:15:57;;;;;;;2.22;2.13;;;17.50;99.90;;;;;;4875852;29;20449;-80
2021/06/12 01:18:26;;;;;;;2.80;2.60;;;17.50;99.90;;;;;;4876214;29;21185;-80
2021/06/12 01:21:03;;;;;;;2.22;2.13;;;17.40;99.90;;;;;;4907489;29;20423;-79
2021/06/12 01:24:05;;;;;;;2.30;2.13;;;17.40;99.90;;;;;;4904850;29;20448;-79
2021/06/12 01:26:42;;;;;;;2.70;2.50;;;17.40;99.90;;;;;;4899685;29;20423;-80
2021/06/12 01:29:38;;;;;;;2.45;2.33;;;17.30;99.90;;;;;;4890313;29;20429;-79
2021/06/12 01:32:04;;;;;;;2.50;2.30;;;17.30;99.90;;;;;;4890398;29;21106;-80
2021/06/12 01:34:30;;;;;;;2.72;2.47;;;17.30;99.90;;;;;;4909836;29;20413;-80
2021/06/12 01:36:56;;;;;;;2.50;2.30;;;17.20;99.90;;;;;;4910080;29;20466;-79
2021/06/12 01:39:24;;;;;;;2.38;2.17;;;17.20;99.90;;;;;;4921798;29;20412;-79
2021/06/12 01:41:50;;;;;;;2.70;2.50;;;17.10;99.90;;;;;;4921866;29;20411;-79
2021/06/12 01:44:16;;;;;;;2.40;2.20;;;17.10;99.90;;;;;;4904119;29;20406;-80
2021/06/12 01:46:42;;;;;;;2.70;2.50;;;17.00;99.90;;;;;;4896145;29;20505;-80
2021/06/12 01:49:07;;;;;;;2.30;2.20;;;17.00;99.90;;;;;;4922641;29;20411;-80
2021/06/12 01:51:33;;;;;;;2.30;2.20;;;16.90;99.90;;;;;;4907881;29;20483;-80
2021/06/12 01:53:59;;;;;;;2.58;2.38;;;16.90;99.90;;;;;;4906512;29;20426;-80
2021/06/12 01:56:26;;;;;;;2.33;2.20;;;16.90;99.90;;;;;;4924256;28;20417;-79
2021/06/12 01:58:51;;;;;;;2.92;2.63;;;16.90;99.90;;;;;;4905846;29;20419;-80
2021/06/12 02:01:17;;;;;;;2.90;2.70;;;16.90;99.90;;;;;;4905900;29;20409;-81
2021/06/12 02:03:44;;;;;;;2.55;2.35;;;16.80;99.90;;;;;;4908903;29;20411;-79
2021/06/12 02:06:10;;;;;;;2.60;2.40;;;16.90;99.90;;;;;;4889508;29;20436;-79
2021/06/12 02:08:36;;;;;;;2.78;2.58;;;16.90;99.90;;;;;;4888834;29;20389;-79
2021/06/12 02:11:02;;;;;;;2.67;2.47;;;16.90;99.90;;;;;;4894142;29;20457;-79
2021/06/12 02:13:27;;;;;;;2.38;2.17;;;16.90;99.90;;;;;;4923123;28;20423;-81
2021/06/12 02:15:54;;;;;;;2.37;2.23;;;16.80;99.90;;;;;;4895664;29;20399;-79
2021/06/12 02:18:20;;;;;;;2.72;2.53;;;16.80;99.90;;;;;;4883240;29;20415;-80
2021/06/12 02:20:47;;;;;;;2.73;2.53;;;16.80;99.90;;;;;;4884648;29;20410;-80
2021/06/12 02:23:13;;;;;;;2.90;2.60;;;16.90;99.90;;;;;;4889233;29;21035;-83
2021/06/12 02:25:38;;;;;;;2.97;2.78;;;16.70;99.90;;;;;;4897123;29;20407;-80
2021/06/12 02:28:10;;;;;;;2.73;2.53;;;16.70;99.90;;;;;;4878416;29;20407;-83
2021/06/12 02:30:50;;;;;;;3.05;2.75;;;16.70;99.90;;;;;;4891675;29;20403;-82
2021/06/12 02:33:16;;;;;;;3.45;3.15;;;16.70;99.90;;;;;;4900802;29;20921;-82
2021/06/12 02:35:45;;;;;;;2.75;2.55;;;16.70;99.90;;;;;;4901911;29;20399;-82
2021/06/12 02:38:11;;;;;;;3.03;2.83;;;16.80;99.90;;;;;;4907354;29;20931;-81
2021/06/12 02:40:37;;;;;;;2.85;2.65;;;16.70;99.90;;;;;;4891465;29;20406;-81
2021/06/12 02:43:02;;;;;;;2.30;2.20;;;16.70;99.90;;;;;;4893010;29;20466;-86
2021/06/12 02:45:28;;;;;;;2.95;2.75;;;16.70;99.90;;;;;;4908748;29;20491;-82
2021/06/12 02:47:57;;;;;;;4.70;2.67;;;16.70;99.90;;;;;;4917529;29;20429;-81
2021/06/12 02:50:25;;;;;;;2.87;2.67;;;16.70;99.90;;;;;;4873488;29;20444;-81
2021/06/12 02:52:52;;;;;;;3.20;2.90;;;16.70;99.90;;;;;;4896611;29;20447;-81
2021/06/12 02:55:17;;;;;;;3.17;2.92;;;16.70;99.90;;;;;;4891904;29;20403;-81
2021/06/12 02:57:45;;;;;;;3.00;2.80;;;16.70;99.90;;;;;;4907134;29;20957;-84
2021/06/12 03:00:12;;;;;;;3.30;3.10;;;16.80;99.90;;;;;;4907031;29;21135;-83
2021/06/12 03:02:40;;;;;;;3.43;3.13;;;16.80;99.90;;;;;;4907177;29;20417;-82
2021/06/12 03:05:12;;;;;;;3.70;3.40;;;16.90;99.90;;;;;;4886134;29;20405;-82
2021/06/12 03:07:37;;;;;;;3.45;3.15;;;16.90;99.90;;;;;;4916892;29;20423;-81
2021/06/12 03:10:03;;;;;;;3.20;3.00;;;17.00;99.90;;;;;;4894911;29;20403;-81
2021/06/12 03:12:29;;;;;;;3.40;3.10;;;17.10;99.90;;;;;;4897698;29;20414;-81
2021/06/12 03:14:56;;;;;;;3.38;3.08;;;17.10;99.90;;;;;;4910575;29;20409;-83
2021/06/12 03:17:21;;;;;;;3.15;2.88;;;17.20;99.90;;;;;;4877254;29;20402;-81
2021/06/12 03:19:47;;;;;;;3.10;2.90;;;17.20;99.90;;;;;;4895412;29;20474;-83
2021/06/12 03:22:13;;;;;;;3.80;3.30;;;17.20;99.90;;;;;;4921215;29;20498;-81
2021/06/12 03:24:38;;;;;;;3.13;2.93;;;17.20;99.90;;;;;;4882861;29;20409;-81
2021/06/12 03:27:04;;;;;;;3.22;3.03;;;17.20;99.90;;;;;;4880997;29;20426;-79
2021/06/12 03:29:31;;;;;;;3.75;3.35;;;17.20;99.90;;;;;;4892629;29;20427;-84
2021/06/12 03:31:57;;;;;;;3.72;3.42;;;17.10;99.90;;;;;;4916811;29;20466;-82
2021/06/12 03:34:22;;;;;;;3.80;3.50;;;17.10;99.90;;;;;;4879666;29;20463;-84
2021/06/12 03:36:48;;;;;;;3.57;3.27;;;17.20;99.90;;;;;;4910468;29;20411;-81
2021/06/12 03:39:14;;;;;;;3.75;3.45;;;17.20;99.90;;;;;;4901550;29;20399;-81
2021/06/12 03:41:39;;;;;;;3.60;3.30;;;17.20;99.90;;;;;;4900888;29;20412;-81
2021/06/12 03:44:05;;;;;;;3.22;3.03;;;17.20;99.90;;;;;;4895675;29;20421;-81
2021/06/12 03:46:31;;;;;;;3.40;3.20;;;17.30;99.90;;;;;;4900253;29;20445;-84
2021/06/12 03:48:56;;;;;;;3.45;3.22;;;17.40;99.90;;;;;;4924772;29;20442;-81
2021/06/12 03:51:22;;;;;;;4.75;3.50;;;17.40;99.90;;;;;;4917180;29;20526;-81
2021/06/12 03:53:48;;;;;;;3.90;3.60;;;17.50;99.90;;;;;;4896438;29;20418;-85
2021/06/12 03:56:15;;;;;;;3.97;3.58;;;17.60;99.90;;;;;;4893996;29;20414;-82
2021/06/12 03:58:42;;;;;;;3.20;3.00;;;17.80;99.90;;;;;;4899311;29;20977;-82
2021/06/12 04:01:14;;;;;;;3.60;3.30;;;17.60;99.90;;;;;;4925077;29;20403;-81
2021/06/12 04:03:41;;;;;;;3.90;3.60;;;17.70;99.90;;;;;;4910709;29;20421;-81
2021/06/12 04:06:07;;;;;;;3.47;3.20;;;17.70;99.90;;;;;;4888338;29;20423;-82
2021/06/12 04:08:32;;;;;;;3.80;3.50;;;17.80;99.90;;;;;;4909760;29;20415;-82
2021/06/12 04:10:58;;;;;;;3.50;3.30;;;17.80;99.90;;;;;;4909643;29;20489;-82
2021/06/12 04:13:25;;;;;;;4.03;3.60;;;17.90;99.90;;;;;;4908274;29;20431;-81
2021/06/12 04:15:51;;;;;;;3.38;3.13;;;17.90;99.90;;;;;;4896732;29;20469;-81
2021/06/12 04:18:17;;;;;;;4.10;3.70;;;17.90;99.90;;;;;;4888931;29;20490;-81
2021/06/12 04:20:42;;;;;;;3.75;3.45;;;18.00;99.90;;;;;;4899244;29;20422;-81
2021/06/12 04:23:08;;;;;;;3.97;3.57;;;18.00;99.90;;;;;;4900430;29;20453;-84
2021/06/12 04:25:34;;;;;;;3.95;3.55;;;18.10;99.90;;;;;;4923066;29;20443;-81
2021/06/12 04:27:59;;;;;;;3.77;3.47;;;18.10;99.90;;;;;;4921088;29;20419;-81
2021/06/12 04:30:25;;;;;;;3.92;3.63;;;18.10;99.90;;;;;;4910175;29;20407;-82
2021/06/12 04:32:51;;;;;;;4.17;3.87;;;18.10;99.90;;;;;;4920910;29;20482;-81
2021/06/12 04:35:16;;;;;;;3.78;3.40;;;18.10;99.90;;;;;;4888876;29;20426;-83
2021/06/12 04:37:42;;;;;;;3.50;3.23;;;18.10;99.90;;;;;;4918325;29;20397;-81
2021/06/12 04:40:09;;;;;;;3.88;3.58;;;18.20;99.90;;;;;;4910343;29;20419;-81
2021/06/12 04:42:35;;;;;;;3.75;3.45;;;18.20;99.90;;;;;;4893846;29;20486;-85
2021/06/12 04:45:01;;;;;;;6.00;3.70;;;18.40;99.90;;;;;;4914609;29;20530;-86
2021/06/12 04:47:26;;;;;;;3.87;3.57;;;18.30;99.90;;;;;;4924405;29;20801;-84
2021/06/12 04:49:52;;;;;;;3.67;3.38;;;18.40;99.90;;;;;;4925511;29;20986;-82
2021/06/12 04:52:18;;;;;;;3.70;3.40;;;18.40;99.90;;;;;;4920530;29;20424;-81
2021/06/12 04:54:43;;;;;;;4.03;3.40;;;18.40;99.90;;;;;;4907682;29;20924;-81
2021/06/12 04:57:09;;;;;;;3.73;3.43;;;18.50;99.90;;;;;;4911614;29;20911;-81
2021/06/12 04:59:35;;;;;;;3.80;3.50;;;18.60;99.90;;;;;;4895340;29;20933;-84
2021/06/12 05:02:00;;;;;;;3.42;3.22;;;18.70;99.90;;;;;;4885158;29;20429;-81
2021/06/12 05:04:26;;;;;;;3.93;3.50;;;18.90;99.90;;;;;;4907126;29;20905;-82
2021/06/12 05:06:52;;;;;;;3.70;3.40;;;18.90;99.90;;;;;;4932692;28;20454;-83
2021/06/12 05:09:17;;;;;;;3.90;3.60;;;18.90;99.90;;;;;;4926127;29;20433;-78
2021/06/12 05:11:43;;;;;;;4.07;3.67;;;19.00;99.90;;;;;;4898136;29;20411;-80
2021/06/12 05:14:08;;;;;;;4.03;3.70;;;19.10;99.90;;;;;;4892135;29;20410;-80
2021/06/12 05:16:35;;;;;;;3.87;3.57;;;19.20;99.90;;;;;;4918491;29;20744;-82
2021/06/12 05:19:01;;;;;;;3.90;3.60;;;19.10;99.90;;;;;;4910775;29;20909;-81
2021/06/12 05:21:26;;;;;;;3.87;3.57;;;19.10;99.90;;;;;;4905086;29;20449;-85
2021/06/12 05:23:53;;;;;;;3.75;3.45;;;19.20;99.90;;;;;;4906004;29;20406;-81
2021/06/12 05:26:18;;;;;;;4.50;4.10;;;19.30;99.90;;;;;;4899592;29;20508;-82
2021/06/12 05:28:44;;;;;;;4.27;3.87;;;19.40;99.90;;;;;;4914692;29;20701;-80
2021/06/12 05:31:10;;;;;;;4.05;3.75;;;19.40;99.90;;;;;;4935880;28;20401;-80
2021/06/12 05:33:35;;;;;;;4.15;3.85;;;19.50;99.90;;;;;;4905884;29;20419;-80
2021/06/12 05:36:01;;;;;;;4.13;3.83;;;19.60;99.90;;;;;;4915597;29;20404;-81
2021/06/12 05:38:27;;;;;;;4.10;3.80;;;19.60;99.90;;;;;;4906965;29;20441;-82
2021/06/12 05:40:53;;;;;;;4.00;3.70;;;19.70;99.90;;;;;;4905574;29;20407;-78
2021/06/12 05:43:19;;;;;;;4.22;3.83;;;19.80;99.90;;;;;;4890658;29;20415;-89
2021/06/12 05:45:45;;;;;;;3.40;3.20;;;19.90;99.90;;;;;;4891794;29;20505;-80
2021/06/12 05:48:11;;;;;;;3.83;3.53;;;20.10;99.90;;;;;;4904893;29;20485;-80
2021/06/12 05:50:36;;;;;;;3.87;3.57;;;20.20;99.90;;;;;;4909674;29;21065;-81
2021/06/12 05:53:02;;;;;;;3.50;3.22;;;20.20;99.90;;;;;;4888522;29;20795;-81
2021/06/12 05:55:28;;;;;;;3.60;3.30;;;20.40;99.90;;;;;;4914862;29;20422;-83
2021/06/12 05:57:53;;;;;;;3.50;3.20;;;20.50;99.90;;;;;;4891373;29;20402;-80
2021/06/12 06:00:20;;;;;;;3.92;3.53;;;20.60;99.90;;;;;;4898686;29;20414;-80
2021/06/12 06:02:45;;;;;;;3.45;3.15;;;20.80;99.90;;;;;;4913406;29;20476;-80
2021/06/12 06:05:11;;;;;;;4.10;3.60;;;20.90;99.90;;;;;;4874747;29;20437;-80
2021/06/12 06:07:37;;;;;;;3.33;3.13;;;21.00;99.90;;;;;;4909697;29;20482;-81
2021/06/12 06:10:03;;;;;;;3.97;3.47;;;21.10;99.90;;;;;;4894925;29;20516;-81
2021/06/12 06:12:30;;;;;;;3.80;3.50;;;21.20;99.90;;;;;;4894460;29;20419;-81
2021/06/12 06:14:56;;;;;;;3.78;3.17;;;21.40;99.90;;;;;;4882582;29;20412;-81
2021/06/12 06:17:22;;;;;;;3.40;3.13;;;21.50;99.90;;;;;;4897712;29;20405;-81
2021/06/12 06:19:47;;;;;;;3.72;3.42;;;21.60;99.90;;;;;;4909814;29;21168;-80
2021/06/12 06:22:13;;;;;;;3.40;3.10;;;21.70;99.90;;;;;;4923748;29;20891;-83
2021/06/12 06:24:39;;;;;;;3.22;2.92;;;21.90;99.90;;;;;;4901287;29;20383;-92
2021/06/12 06:27:05;;;;;;;3.20;3.00;;;22.10;99.90;;;;;;4899114;29;20424;-81
2021/06/12 06:29:31;;;;;;;3.33;3.13;;;22.20;99.90;;;;;;4920345;29;20714;-81
2021/06/12 06:31:56;;;;;;;3.00;2.80;;;22.30;99.90;;;;;;4913722;29;20492;-80
2021/06/12 06:34:22;;;;;;;2.80;2.60;;;22.60;99.90;;;;;;4909712;29;20416;-81
2021/06/12 06:36:48;;;;;;;3.40;3.10;;;22.50;99.90;;;;;;4892815;29;20407;-83
2021/06/12 06:39:14;;;;;;;2.70;2.50;;;22.80;99.90;;;;;;4906356;29;20417;-81
2021/06/12 06:41:40;;;;;;;3.05;2.85;;;23.00;99.90;;;;;;4913795;29;20442;-81
2021/06/12 06:44:08;;;;;;;2.90;2.70;;;23.20;99.90;;;;;;4876315;29;20489;-80
2021/06/12 06:46:35;;;;;;;2.90;2.70;;;23.20;99.90;;;;;;4895081;29;20419;-82
2021/06/12 06:49:00;;;;;;;2.92;2.72;;;23.40;99.90;;;;;;4895786;29;20413;-81
2021/06/12 06:51:27;;;;;;;2.80;2.60;;;23.50;99.90;;;;;;4914533;29;20457;-82
2021/06/12 06:53:53;;;;;;;2.83;2.63;;;23.80;99.90;;;;;;4882757;29;20496;-80
2021/06/12 06:56:19;;;;;;;2.38;2.22;;;24.20;99.90;;;;;;4902762;29;20440;-79
2021/06/12 06:58:47;;;;;;;2.08;1.98;;;24.20;99.90;;;;;;4915230;29;20449;-82
2021/06/12 07:01:17;;;;;;;2.80;2.60;;;24.50;99.90;;;;;;4913200;29;20399;-82
2021/06/12 07:03:46;;;;;;;2.38;2.17;;;24.50;99.90;;;;;;4905354;29;20415;-81
2021/06/12 07:06:19;;;;;;;2.60;2.30;;;24.80;99.90;;;;;;4911647;29;20939;-82
2021/06/12 07:08:53;;;;;;;2.42;2.22;;;24.90;99.90;;;;;;4918404;29;20407;-82
2021/06/12 07:11:27;;;;;;;2.05;1.85;;;24.90;99.90;;;;;;4899509;29;20395;-83
2021/06/12 07:14:26;;;;;;;2.22;2.03;;;25.10;99.90;;;;;;4923272;28;20465;-83
2021/06/12 07:17:49;;;;;;;1.90;1.80;;;25.30;99.90;;;;;;4920201;29;20405;-82
2021/06/12 07:21:04;;;;;;;6.88;3.35;;;25.60;99.90;;;;;;4898537;29;20435;-79
2021/06/12 07:24:48;;;;;;;2.97;2.20;;;26.00;99.90;;;;;;4878084;29;20434;-81
2021/06/12 07:27:49;;;;;;;2.57;2.37;;;26.10;99.90;;;;;;4887444;29;20419;-81
2021/06/12 07:30:49;;;;;;;3.17;2.10;;;26.00;99.90;;;;;;4916449;23;20445;-79
2021/06/12 07:33:16;;;;;;;22.45;6.85;;;26.00;99.90;;;;;;4870820;29;20460;-81
2021/06/12 07:36:05;;;;;;;2.30;2.10;;;25.90;99.90;;;;;;4862274;29;20415;-80
2021/06/12 07:38:40;;;;;;;2.70;2.50;;;25.80;99.90;;;;;;4899472;28;20400;-82
2021/06/12 07:41:08;;;;;;;16.25;6.68;;;25.90;99.90;;;;;;4919206;29;20387;-82
2021/06/12 07:43:41;;;;;;;4.32;3.55;;;25.90;99.90;;;;;;4909242;29;20418;-82
2021/06/12 07:46:09;;;;;;;8.05;5.70;;;25.80;99.90;;;;;;4909248;29;20422;-79
2021/06/12 07:48:35;;;;;;;26.97;9.77;;;25.70;99.90;;;;;;4950027;28;20429;-79
2021/06/12 07:51:02;;;;;;;20.20;7.40;;;25.50;99.90;;;;;;4914900;29;20973;-83
2021/06/12 07:53:30;;;;;;;2.97;2.50;;;25.30;99.90;;;;;;4907561;29;20466;-81
2021/06/12 07:56:14;;;;;;;1.88;1.77;;;24.90;99.90;;;;;;4846951;29;21337;-81
2021/06/12 07:58:41;;;;;;;2.40;2.20;;;24.90;99.90;;;;;;4916649;29;20484;-81
2021/06/12 08:01:07;;;;;;;2.50;2.30;;;24.70;99.90;;;;;;4882670;29;20527;-80
2021/06/12 08:03:35;;;;;;;1.73;1.63;;;24.40;99.90;;;;;;4900258;29;20406;-82
2021/06/12 08:06:06;;;;;;;2.20;2.00;;;24.20;99.90;;;;;;4906072;29;20410;-81
2021/06/12 08:08:34;;;;;;;1.65;1.55;;;24.20;99.90;;;;;;4910626;29;20410;-80
2021/06/12 08:11:00;;;;;;;1.92;1.83;;;24.10;99.90;;;;;;4889763;28;20401;-83
2021/06/12 08:13:26;;;;;;;1.60;1.50;;;24.00;99.90;;;;;;4943848;28;20423;-80
2021/06/12 08:15:53;;;;;;;1.70;1.60;;;24.00;99.90;;;;;;4887755;29;20409;-81
2021/06/12 08:18:23;;;;;;;2.17;1.98;;;24.00;99.90;;;;;;4914793;29;20782;-82
2021/06/12 08:21:02;;;;;;;1.67;1.57;;;23.90;99.90;;;;;;4900952;29;20418;-79
2021/06/12 08:24:26;;;;;;;1.95;1.85;;;23.90;99.90;;;;;;4876033;29;20424;-82
2021/06/12 08:33:12;;;;;;;1.90;1.75;;;24.00;99.90;;;;;;4819510;29;20439;-80
2021/06/12 08:37:08;;;;;;;1.77;1.67;;;24.20;99.90;;;;;;4801168;29;20689;-80
2021/06/12 08:40:41;;;;;;;1.70;1.60;;;24.00;99.90;;;;;;4826359;29;21202;-80
2021/06/12 08:44:46;;;;;;;5.03;2.17;;;23.80;99.90;;;;;;4826621;29;20470;-81
2021/06/12 08:47:15;;;;;;;3.63;2.33;;;23.70;99.90;;;;;;4865928;29;21068;-79
2021/06/12 08:49:43;;;;;;;1.90;1.80;;;23.90;99.90;;;;;;4888625;29;20479;-81
2021/06/12 08:52:09;;;;;;;1.92;1.83;;;23.90;99.90;;;;;;4890935;28;20413;-79
2021/06/12 08:54:35;;;;;;;3.97;3.40;;;24.20;99.90;;;;;;4916646;29;20398;-78
2021/06/12 08:57:01;;;;;;;2.60;2.40;;;24.00;99.90;;;;;;4882165;29;20403;-78
2021/06/12 08:59:33;;;;;;;2.28;2.13;;;24.00;99.90;;;;;;4879500;29;20477;-80
2021/06/12 09:01:59;;;;;;;2.20;2.00;;;24.00;99.90;;;;;;4894187;29;20432;-81
2021/06/12 09:04:26;;;;;;;2.00;1.90;;;24.20;99.90;;;;;;4886011;29;20406;-80
2021/06/12 09:07:18;;;;;;;1.90;1.80;;;24.30;99.90;;;;;;4906336;29;20476;-77
2021/06/12 09:09:44;;;;;;;2.03;1.93;;;24.40;99.90;;;;;;4905595;29;20494;-77
2021/06/12 09:12:10;;;;;;;3.22;1.77;;;24.50;99.90;;;;;;4895098;28;21073;-79
2021/06/12 09:14:35;;;;;;;1.80;1.70;;;24.50;99.90;;;;;;4933706;29;20411;-78
2021/06/12 09:17:01;;;;;;;1.80;1.70;;;24.50;99.90;;;;;;4908826;29;20412;-78
2021/06/12 09:19:26;;;;;;;1.80;1.70;;;24.70;99.90;;;;;;4893926;29;20613;-77
2021/06/12 09:21:59;;;;;;;1.77;1.67;;;24.90;99.90;;;;;;4897264;28;20403;-77
2021/06/12 09:24:38;;;;;;;2.10;2.00;;;25.00;99.90;;;;;;4890864;29;20408;-77
2021/06/12 09:27:13;;;;;;;2.33;2.13;;;25.00;99.90;;;;;;4896575;29;20923;-77
2021/06/12 09:29:46;;;;;;;1.90;1.80;;;25.10;99.90;;;;;;4912983;28;20407;-77
2021/06/12 09:32:14;;;;;;;1.90;1.80;;;25.10;99.90;;;;;;4901766;29;20419;-78
2021/06/12 09:34:40;;;;;;;1.88;1.77;;;25.10;99.90;;;;;;4889416;29;20410;-79
2021/06/12 09:37:19;;;;;;;2.20;2.05;;;25.30;99.90;;;;;;4905412;29;20880;-77
2021/06/12 09:40:06;;;;;;;2.40;2.20;;;25.40;99.90;;;;;;4904701;29;20493;-78
2021/06/12 09:42:45;;;;;;;3.17;2.88;;;25.30;99.90;;;;;;4935362;28;20425;-78
2021/06/12 09:45:15;;;;;;;2.15;2.05;;;25.30;99.90;;;;;;4925186;28;20443;-78
2021/06/12 09:47:41;;;;;;;2.10;1.90;;;25.50;99.90;;;;;;4906039;29;20780;-77
2021/06/12 09:50:07;;;;;;;2.33;2.13;;;25.70;99.90;;;;;;4923902;29;20781;-77
2021/06/12 09:52:54;;;;;;;2.17;2.05;;;25.90;99.90;;;;;;4888306;29;20407;-76
2021/06/12 09:55:21;;;;;;;2.00;1.90;;;26.00;99.90;;;;;;4912090;29;20428;-77
2021/06/12 09:57:48;;;;;;;2.45;2.25;;;26.10;99.90;;;;;;4901810;29;20405;-78
2021/06/12 10:00:14;;;;;;;2.70;2.28;;;26.20;99.90;;;;;;4894184;29;20458;-77
2021/06/12 10:02:47;;;;;;;2.10;1.90;;;26.30;99.90;;;;;;4894189;29;20396;-77
2021/06/12 10:05:14;;;;;;;2.33;2.13;;;26.40;99.90;;;;;;4879420;29;20400;-77
2021/06/12 10:07:40;;;;;;;2.00;1.90;;;26.70;99.90;;;;;;4895715;29;20416;-78
2021/06/12 10:10:15;;;;;;;2.50;2.10;;;27.20;99.90;;;;;;4891699;29;20408;-77
2021/06/12 10:12:41;;;;;;;1.98;1.88;;;27.40;99.90;;;;;;4880676;29;20505;-78
2021/06/12 10:15:08;;;;;;;2.00;1.90;;;27.50;99.90;;;;;;4892611;29;20928;-78
2021/06/12 10:17:55;;;;;;;2.20;2.00;;;27.40;99.90;;;;;;4894603;29;20415;-79
2021/06/12 10:20:22;;;;;;;2.27;2.07;;;27.60;99.90;;;;;;4897518;29;20411;-78
2021/06/12 10:22:50;;;;;;;2.40;2.20;;;27.70;99.90;;;;;;4881584;28;20416;-77
2021/06/12 10:25:16;;;;;;;4.75;2.20;;;27.60;99.90;;;;;;4900279;29;20394;-77
2021/06/12 10:27:42;;;;;;;2.30;2.03;;;27.70;99.90;;;;;;4886075;29;21805;-77
2021/06/12 10:30:09;;;;;;;2.30;2.10;;;27.50;99.90;;;;;;4914919;28;20426;-77
2021/06/12 10:32:34;;;;;;;1.95;1.85;;;27.50;99.90;;;;;;4891517;29;20498;-78
2021/06/12 10:35:03;;;;;;;2.42;2.22;;;27.60;99.90;;;;;;4914365;28;20409;-78
2021/06/12 10:37:29;;;;;;;2.17;2.08;;;27.70;99.90;;;;;;4887213;29;20494;-78
2021/06/12 10:40:04;;;;;;;2.00;1.90;;;27.60;99.90;;;;;;4879783;29;20423;-77
2021/06/12 10:42:30;;;;;;;2.00;1.80;;;27.40;99.90;;;;;;4884098;28;20405;-76
2021/06/12 10:44:56;;;;;;;2.25;2.10;;;27.50;99.90;;;;;;4881074;29;20442;-77
2021/06/12 10:47:41;;;;;;;2.10;1.87;;;27.50;99.90;;;;;;4883011;29;20419;-78
2021/06/12 10:50:28;;;;;;;2.10;2.00;;;27.50;99.90;;;;;;4897241;29;20410;-78
2021/06/12 10:52:54;;;;;;;2.10;1.90;;;27.60;99.90;;;;;;4903876;29;20406;-79
2021/06/12 10:55:39;;;;;;;1.90;1.80;;;27.60;99.90;;;;;;4909335;29;21226;-78
2021/06/12 10:58:31;;;;;;;2.13;2.03;;;27.60;99.90;;;;;;4906282;29;20482;-77
2021/06/12 11:01:08;;;;;;;2.35;2.17;;;27.50;99.90;;;;;;4893687;29;20826;-78
2021/06/12 11:06:57;;;;;;;2.40;2.20;;;26.60;99.90;;;;;;4901425;28;20514;-77
2021/06/12 11:09:35;;;;;;;2.70;2.30;;;26.10;99.90;;;;;;4930624;29;20396;-76
2021/06/12 11:12:02;;;;;;;2.80;2.60;;;25.50;99.90;;;;;;4895051;29;20486;-77
2021/06/12 11:14:34;;;;;;;3.40;3.20;;;24.90;99.90;;;;;;4921164;28;20405;-81
2021/06/12 11:19:32;;;;;;;4.80;2.80;;;23.50;99.90;;;;;;4928680;29;20411;-79
2021/06/12 11:22:36;;;;;;;2.10;2.00;;;23.20;99.90;;;;;;4907170;28;20385;-79
2021/06/12 11:25:08;;;;;;;1.90;1.80;;;23.20;99.90;;;;;;4913726;29;20461;-78
2021/06/12 11:27:49;;;;;;;2.30;2.10;;;23.00;99.90;;;;;;4923428;29;20916;-78
2021/06/12 11:30:22;;;;;;;2.28;1.92;;;22.90;99.90;;;;;;4878815;29;20400;-81
2021/06/12 11:32:57;;;;;;;2.05;1.95;;;22.80;99.90;;;;;;4891496;29;20422;-78
2021/06/12 11:35:44;;;;;;;2.30;2.10;;;22.80;99.90;;;;;;4909814;29;20426;-81
2021/06/12 11:38:19;;;;;;;2.40;2.20;;;22.80;99.90;;;;;;4895588;29;20408;-78
2021/06/12 11:41:08;;;;;;;2.60;2.40;;;22.70;99.90;;;;;;4910848;29;20902;-77
2021/06/12 11:43:49;;;;;;;3.00;2.50;;;22.70;99.90;;;;;;4864736;29;20451;-80
2021/06/12 11:46:19;;;;;;;2.10;2.00;;;22.70;99.90;;;;;;4883817;29;20425;-77
2021/06/12 11:48:49;;;;;;;2.35;2.22;;;22.60;99.90;;;;;;4893561;29;20396;-77
2021/06/12 11:51:15;;;;;;;2.80;2.60;;;22.60;99.90;;;;;;4929743;28;20400;-76
2021/06/12 11:53:42;;;;;;;3.03;2.83;;;22.50;99.90;;;;;;4928825;29;20419;-77
2021/06/12 11:56:10;;;;;;;3.20;3.00;;;22.50;99.90;;;;;;4900640;29;20523;-77
2021/06/12 11:58:58;;;;;;;3.00;2.80;;;22.40;99.90;;;;;;4915695;29;20404;-78
2021/06/12 12:01:47;;;;;;;3.00;2.80;;;22.40;99.90;;;;;;4884686;29;20402;-75
2021/06/12 12:04:17;;;;;;;2.95;2.75;;;22.40;99.90;;;;;;4895151;28;21210;-75
2021/06/12 12:06:56;;;;;;;3.97;3.08;;;22.50;99.90;;;;;;4905774;29;20433;-75
2021/06/12 12:09:28;;;;;;;3.10;2.80;;;22.50;99.90;;;;;;4877580;29;20424;-77
2021/06/12 12:11:59;;;;;;;3.10;2.90;;;22.50;99.90;;;;;;4912855;28;20842;-78
2021/06/12 12:14:36;;;;;;;3.03;2.78;;;22.50;99.90;;;;;;4908352;29;20404;-77
2021/06/12 12:17:03;;;;;;;3.35;3.13;;;22.50;99.90;;;;;;4918241;29;20407;-77
2021/06/12 12:19:28;;;;;;;2.97;2.78;;;22.60;99.90;;;;;;4910788;29;20446;-76
2021/06/12 12:21:58;;;;;;;3.90;2.90;;;22.70;99.90;;;;;;4894964;28;20425;-76
2021/06/12 12:24:26;;;;;;;3.63;3.28;;;22.70;99.90;;;;;;4897854;29;20408;-77
2021/06/12 12:27:01;;;;;;;3.83;3.42;;;22.80;99.90;;;;;;4867800;29;20420;-78
2021/06/12 12:29:28;;;;;;;3.20;3.00;;;22.90;99.90;;;;;;4914075;29;20415;-79
2021/06/12 12:31:56;;;;;;;3.60;3.20;;;23.00;99.90;;;;;;4897388;29;20434;-77
2021/06/12 12:34:41;;;;;;;3.08;2.78;;;23.20;99.90;;;;;;4875561;29;20454;-75
2021/06/12 12:37:16;;;;;;;4.32;3.60;;;23.30;99.90;;;;;;4905385;29;20450;-76
2021/06/12 12:39:46;;;;;;;3.50;3.20;;;23.20;99.90;;;;;;4884729;29;20407;-75
2021/06/12 12:42:16;;;;;;;3.45;3.15;;;23.20;99.90;;;;;;4897215;29;20411;-76
2021/06/12 12:44:43;;;;;;;3.17;2.97;;;23.30;99.90;;;;;;4866938;29;21199;-77
2021/06/12 12:47:11;;;;;;;2.80;2.60;;;23.40;99.90;;;;;;4883852;29;20419;-77
2021/06/12 12:49:39;;;;;;;2.85;2.65;;;23.50;99.90;;;;;;4882472;29;20411;-78
2021/06/12 12:52:05;;;;;;;3.10;2.90;;;23.70;99.90;;;;;;4909041;28;20465;-77
2021/06/12 12:54:32;;;;;;;4.07;2.83;;;23.90;99.90;;;;;;4936142;29;20415;-77
2021/06/12 12:57:04;;;;;;;2.78;2.58;;;23.90;99.90;;;;;;4883425;29;20392;-77
2021/06/12 12:59:32;;;;;;;2.85;2.65;;;24.10;99.90;;;;;;4888883;29;20397;-77
2021/06/12 13:01:59;;;;;;;3.50;3.20;;;24.10;99.90;;;;;;4892379;29;20423;-79
2021/06/12 13:04:28;;;;;;;3.05;2.85;;;24.30;99.90;;;;;;4887952;29;20560;-79
2021/06/12 13:07:18;;;;;;;3.10;2.70;;;24.70;99.90;;;;;;4885184;29;20987;-77
2021/06/12 13:09:45;;;;;;;2.70;2.50;;;25.00;99.90;;;;;;4922143;29;20508;-77
2021/06/12 13:12:20;;;;;;;2.50;2.30;;;25.40;99.90;;;;;;4898817;29;20465;-78
2021/06/12 13:15:00;;;;;;;2.90;2.45;;;25.70;99.90;;;;;;4881782;29;20407;-80
2021/06/12 13:17:26;;;;;;;2.40;2.20;;;25.80;99.90;;;;;;4897047;29;20404;-77